Time;durP1;ratioP1;P1;durP2;ratioP2;P2;SDS_P1;SDS_P2;PMS_P1;PMS_P2;Temp;Humidity;BMP_temperature;BMP_pressure;BME280_temperature;BME280_humidity;BME280_pressure;Samples;Min_cycle;Max_cycle;Signal;HPM_P1;HPM_P2
2021/03/14 00:02:16;;;;;;;1.75;0.70;;;3.70;99.90;;;;;;5085233;28;20041;-71
2021/03/14 00:04:43;;;;;;;0.70;0.47;;;3.80;99.90;;;;;;5084980;28;20154;-69
2021/03/14 00:07:09;;;;;;;3.30;1.25;;;3.80;99.90;;;;;;5084907;28;20416;-68
2021/03/14 00:09:35;;;;;;;1.85;0.63;;;3.80;99.90;;;;;;5066959;28;20112;-69
2021/03/14 00:12:01;;;;;;;1.65;0.55;;;3.80;99.90;;;;;;5064699;28;20044;-71
2021/03/14 00:14:27;;;;;;;0.55;0.22;;;3.80;99.90;;;;;;5064829;28;20041;-69
2021/03/14 00:16:53;;;;;;;3.92;0.50;;;3.80;99.90;;;;;;5064803;28;20028;-70
2021/03/14 00:19:19;;;;;;;3.38;1.27;;;3.80;99.90;;;;;;5072522;28;20035;-71
2021/03/14 00:21:46;;;;;;;0.90;0.57;;;3.80;99.90;;;;;;5084751;28;20052;-70
2021/03/14 00:24:11;;;;;;;0.65;0.22;;;3.80;99.90;;;;;;5085121;28;20024;-72
2021/03/14 00:26:37;;;;;;;0.88;0.60;;;3.80;99.90;;;;;;5084856;28;20064;-68
2021/03/14 00:29:05;;;;;;;4.85;0.20;;;3.80;99.90;;;;;;5083267;28;20035;-68
2021/03/14 00:31:31;;;;;;;4.25;0.60;;;3.80;99.90;;;;;;5084545;28;20032;-68
2021/03/14 00:33:56;;;;;;;0.10;0.10;;;3.80;99.90;;;;;;5084622;28;20037;-68
2021/03/14 00:36:22;;;;;;;0.20;0.20;;;3.90;99.90;;;;;;5077825;28;20033;-66
2021/03/14 00:38:49;;;;;;;0.90;0.47;;;3.80;99.90;;;;;;5064342;28;20029;-68
2021/03/14 00:41:15;;;;;;;1.02;0.40;;;3.90;99.90;;;;;;5064723;28;20025;-68
2021/03/14 00:43:40;;;;;;;0.40;0.17;;;3.90;99.90;;;;;;5064760;28;20059;-68
2021/03/14 00:46:06;;;;;;;0.20;0.20;;;3.90;99.90;;;;;;5064624;28;20389;-66
2021/03/14 00:48:32;;;;;;;5.03;0.68;;;3.90;99.90;;;;;;5064496;28;20481;-68
2021/03/14 00:50:57;;;;;;;0.17;0.10;;;3.90;99.90;;;;;;5064406;28;20025;-68
2021/03/14 00:53:23;;;;;;;0.28;0.10;;;3.90;99.90;;;;;;5064151;28;20064;-67
2021/03/14 00:55:52;;;;;;;0.98;0.50;;;3.90;99.90;;;;;;5068923;28;20277;-68
2021/03/14 00:58:23;;;;;;;1.55;0.70;;;3.90;99.90;;;;;;5084554;28;20047;-66
2021/03/14 01:00:49;;;;;;;0.90;0.65;;;3.90;99.90;;;;;;5087191;28;20028;-68
2021/03/14 01:03:15;;;;;;;3.25;0.68;;;3.90;99.90;;;;;;5087716;28;20024;-69
2021/03/14 01:05:41;;;;;;;0.40;0.40;;;3.90;99.90;;;;;;5086683;28;20024;-67
2021/03/14 01:08:06;;;;;;;3.10;0.88;;;3.90;99.90;;;;;;5085321;28;20037;-69
2021/03/14 01:10:32;;;;;;;2.10;0.60;;;3.90;99.90;;;;;;5087610;28;20048;-68
2021/03/14 01:13:03;;;;;;;4.85;0.70;;;3.90;99.90;;;;;;5088105;28;20052;-68
2021/03/14 01:15:29;;;;;;;1.55;0.55;;;3.90;99.90;;;;;;5087560;28;20024;-67
2021/03/14 01:17:55;;;;;;;0.70;0.38;;;3.90;99.90;;;;;;5087648;28;20044;-67
2021/03/14 01:20:22;;;;;;;0.95;0.80;;;3.90;99.90;;;;;;5087861;28;20032;-69
2021/03/14 01:22:48;;;;;;;3.47;0.80;;;3.90;99.90;;;;;;5087631;28;20024;-69
2021/03/14 01:25:14;;;;;;;0.38;0.28;;;3.90;99.90;;;;;;5088214;28;20113;-69
2021/03/14 01:27:45;;;;;;;4.85;0.55;;;3.90;99.90;;;;;;5088046;28;20100;-68
2021/03/14 01:30:13;;;;;;;5.80;0.55;;;3.90;99.90;;;;;;5087799;28;20089;-67
2021/03/14 01:32:38;;;;;;;1.38;0.60;;;3.90;99.90;;;;;;5087789;28;20067;-67
2021/03/14 01:35:04;;;;;;;4.40;0.73;;;3.90;99.90;;;;;;5087685;28;20036;-69
2021/03/14 01:37:30;;;;;;;2.13;0.73;;;3.90;99.90;;;;;;5087294;28;20036;-66
2021/03/14 01:39:56;;;;;;;3.25;0.70;;;3.90;99.90;;;;;;5087558;28;20412;-68
2021/03/14 01:42:29;;;;;;;0.82;0.82;;;3.90;99.90;;;;;;5087690;28;20047;-70
2021/03/14 01:44:55;;;;;;;0.60;0.45;;;3.90;99.90;;;;;;5087767;28;20043;-69
2021/03/14 01:47:42;;;;;;;8.40;0.65;;;3.90;99.90;;;;;;5087770;28;20053;-68
2021/03/14 01:50:18;;;;;;;2.00;1.00;;;3.90;99.90;;;;;;5087446;28;20032;-68
2021/03/14 01:52:45;;;;;;;1.75;0.60;;;3.90;99.90;;;;;;5087708;28;20033;-71
2021/03/14 01:55:11;;;;;;;4.40;0.57;;;3.90;99.90;;;;;;5087736;28;20028;-68
2021/03/14 01:57:37;;;;;;;4.85;0.63;;;3.80;99.90;;;;;;5087631;28;20113;-69
2021/03/14 02:00:08;;;;;;;0.90;0.60;;;3.80;99.90;;;;;;5086863;28;20378;-70
2021/03/14 02:02:34;;;;;;;0.10;0.10;;;3.80;99.90;;;;;;5087598;28;20078;-70
2021/03/14 02:05:00;;;;;;;1.98;0.55;;;3.90;99.90;;;;;;5087091;28;20044;-70
2021/03/14 02:07:26;;;;;;;11.88;0.85;;;3.80;99.90;;;;;;5085988;28;20036;-69
2021/03/14 02:09:51;;;;;;;0.40;0.40;;;3.80;99.90;;;;;;5086614;28;20049;-71
2021/03/14 02:12:21;;;;;;;3.17;0.38;;;3.80;99.90;;;;;;5087375;28;20079;-72
2021/03/14 02:14:51;;;;;;;1.70;0.60;;;3.80;99.90;;;;;;5086055;28;20445;-69
2021/03/14 02:17:20;;;;;;;0.85;0.55;;;3.80;99.90;;;;;;5087028;28;20028;-68
2021/03/14 02:19:57;;;;;;;0.57;0.30;;;3.80;99.90;;;;;;5086359;28;20032;-69
2021/03/14 02:22:23;;;;;;;0.43;0.30;;;3.90;99.90;;;;;;5087074;28;20088;-69
2021/03/14 02:24:56;;;;;;;7.57;0.77;;;3.80;99.90;;;;;;5086834;28;20028;-68
2021/03/14 02:27:22;;;;;;;8.55;0.40;;;3.90;99.90;;;;;;5086944;28;20021;-68
2021/03/14 02:29:48;;;;;;;0.77;0.60;;;3.90;99.90;;;;;;5086461;28;20119;-69
2021/03/14 02:32:16;;;;;;;0.38;0.32;;;3.90;99.90;;;;;;5085950;28;20120;-68
2021/03/14 02:34:45;;;;;;;1.45;0.35;;;3.90;99.90;;;;;;5087184;28;20032;-71
2021/03/14 02:37:14;;;;;;;13.93;1.75;;;3.90;99.90;;;;;;5086495;28;20017;-66
2021/03/14 02:39:41;;;;;;;1.30;0.30;;;3.90;99.90;;;;;;5086673;28;20021;-67
2021/03/14 02:42:10;;;;;;;1.95;0.60;;;3.90;99.90;;;;;;5086188;28;20741;-68
2021/03/14 02:44:40;;;;;;;6.82;0.95;;;3.80;99.90;;;;;;5086672;28;20029;-67
2021/03/14 02:47:06;;;;;;;1.75;0.73;;;3.80;99.90;;;;;;5086821;28;20088;-67
2021/03/14 02:49:35;;;;;;;0.80;0.50;;;3.80;99.90;;;;;;5086217;28;20975;-68
2021/03/14 02:52:04;;;;;;;4.00;0.85;;;3.80;99.90;;;;;;5086471;28;20068;-66
2021/03/14 02:54:32;;;;;;;1.80;0.60;;;3.80;99.90;;;;;;5086042;28;20024;-68
2021/03/14 02:56:59;;;;;;;16.90;0.85;;;3.90;99.90;;;;;;5086167;28;20104;-68
2021/03/14 02:59:24;;;;;;;1.80;0.63;;;3.90;99.90;;;;;;5086282;28;20040;-68
2021/03/14 03:01:51;;;;;;;6.20;1.25;;;3.80;99.90;;;;;;5085533;28;20036;-70
2021/03/14 03:04:22;;;;;;;1.77;0.47;;;3.80;99.90;;;;;;5084912;28;20032;-68
2021/03/14 03:06:49;;;;;;;0.63;0.45;;;3.80;99.90;;;;;;5086185;28;20028;-68
2021/03/14 03:09:16;;;;;;;1.00;0.82;;;3.90;99.90;;;;;;5085824;28;20033;-68
2021/03/14 03:11:44;;;;;;;1.65;0.30;;;3.80;99.90;;;;;;5086225;28;20481;-68
2021/03/14 03:14:15;;;;;;;1.08;0.95;;;3.80;99.90;;;;;;5086342;28;20098;-69
2021/03/14 03:16:42;;;;;;;1.35;0.45;;;3.90;99.90;;;;;;5085986;28;20037;-67
2021/03/14 03:19:12;;;;;;;5.07;0.60;;;3.80;99.90;;;;;;5085596;28;20028;-68
2021/03/14 03:21:38;;;;;;;1.58;0.40;;;3.80;99.90;;;;;;5084306;28;20436;-68
2021/03/14 03:24:05;;;;;;;0.52;0.28;;;3.80;99.90;;;;;;5084549;28;20048;-69
2021/03/14 03:26:31;;;;;;;5.35;0.43;;;3.80;99.90;;;;;;5084876;28;20031;-70
2021/03/14 03:28:57;;;;;;;10.02;1.70;;;3.80;99.90;;;;;;5085835;28;20033;-68
2021/03/14 03:31:22;;;;;;;3.72;0.60;;;3.80;99.90;;;;;;5085585;28;20028;-69
2021/03/14 03:33:48;;;;;;;2.22;0.80;;;3.80;99.90;;;;;;5085540;28;20494;-68
2021/03/14 03:36:13;;;;;;;10.30;1.05;;;3.80;99.90;;;;;;5085662;28;20050;-69
2021/03/14 03:38:39;;;;;;;3.67;1.20;;;3.80;99.90;;;;;;5085628;28;20025;-68
2021/03/14 03:41:05;;;;;;;1.20;0.57;;;3.80;99.90;;;;;;5083077;28;20043;-69
2021/03/14 03:43:36;;;;;;;6.07;1.08;;;3.70;99.90;;;;;;5084888;28;20035;-68
2021/03/14 03:46:05;;;;;;;1.58;0.80;;;3.70;99.90;;;;;;5085337;28;20039;-68
2021/03/14 03:48:39;;;;;;;0.55;0.35;;;3.70;99.90;;;;;;5085310;28;20031;-68
2021/03/14 03:51:05;;;;;;;2.67;0.50;;;3.70;99.90;;;;;;5063090;28;20029;-69
2021/03/14 03:53:32;;;;;;;5.35;0.77;;;3.70;99.90;;;;;;5064952;28;20076;-69
2021/03/14 03:56:10;;;;;;;2.33;0.70;;;3.70;99.90;;;;;;5064890;28;20078;-71
2021/03/14 03:58:36;;;;;;;0.82;0.50;;;3.70;99.90;;;;;;5064704;28;20032;-69
2021/03/14 04:01:03;;;;;;;3.60;0.38;;;3.70;99.90;;;;;;5065076;28;20572;-70
2021/03/14 04:03:34;;;;;;;3.80;0.80;;;3.70;99.90;;;;;;5064937;28;20082;-69
2021/03/14 04:06:01;;;;;;;0.75;0.73;;;3.70;99.90;;;;;;5064860;28;20033;-70
2021/03/14 04:08:28;;;;;;;2.40;0.70;;;3.60;99.90;;;;;;5063728;28;20051;-70
2021/03/14 04:10:55;;;;;;;5.68;0.38;;;3.60;99.90;;;;;;5063021;28;20059;-68
2021/03/14 04:13:21;;;;;;;0.60;0.40;;;3.50;99.90;;;;;;5064608;28;20047;-71
2021/03/14 04:15:47;;;;;;;0.20;0.20;;;3.60;99.90;;;;;;5064621;28;20029;-68
2021/03/14 04:18:15;;;;;;;2.00;0.50;;;3.60;99.90;;;;;;5065252;28;20075;-69
2021/03/14 04:20:41;;;;;;;0.50;0.32;;;3.60;99.90;;;;;;5064681;28;20039;-69
2021/03/14 04:23:12;;;;;;;0.30;0.10;;;3.60;99.90;;;;;;5064250;28;20492;-69
2021/03/14 04:25:39;;;;;;;0.30;0.30;;;3.60;99.90;;;;;;5064795;28;20023;-70
2021/03/14 04:28:06;;;;;;;4.78;0.93;;;3.60;99.90;;;;;;5064176;28;20059;-69
2021/03/14 04:30:33;;;;;;;0.65;0.20;;;3.60;99.90;;;;;;5063880;28;20025;-69
2021/03/14 04:33:00;;;;;;;1.40;0.80;;;3.60;99.90;;;;;;5064504;28;20462;-70
2021/03/14 04:35:26;;;;;;;0.17;0.10;;;3.60;99.90;;;;;;5064516;28;20032;-68
2021/03/14 04:37:53;;;;;;;0.50;0.30;;;3.60;99.90;;;;;;5064556;28;20025;-69
2021/03/14 04:40:19;;;;;;;0.32;0.00;;;3.60;99.90;;;;;;5064578;28;20021;-69
2021/03/14 04:42:50;;;;;;;0.17;0.17;;;3.60;99.90;;;;;;5064595;28;20082;-69
2021/03/14 04:45:17;;;;;;;0.10;0.03;;;3.60;99.90;;;;;;5064608;28;20029;-70
2021/03/14 04:47:45;;;;;;;2.20;0.80;;;3.70;99.90;;;;;;5063453;28;20021;-71
2021/03/14 04:50:15;;;;;;;0.10;0.10;;;3.60;99.90;;;;;;5064608;28;20123;-69
2021/03/14 04:52:44;;;;;;;0.20;0.20;;;3.60;99.90;;;;;;5064535;28;20044;-70
2021/03/14 04:55:13;;;;;;;0.30;0.10;;;3.70;99.90;;;;;;5064503;28;20105;-69
2021/03/14 04:57:41;;;;;;;0.40;0.10;;;3.60;99.90;;;;;;5064831;28;20020;-72
2021/03/14 05:00:10;;;;;;;0.10;0.10;;;3.60;99.90;;;;;;5064438;28;20080;-71
2021/03/14 05:02:36;;;;;;;6.38;0.32;;;3.60;99.90;;;;;;5064384;28;20654;-74
2021/03/14 05:05:05;;;;;;;7.13;0.40;;;3.60;99.90;;;;;;5064347;28;20067;-70
2021/03/14 05:07:31;;;;;;;0.00;0.00;;;3.50;99.90;;;;;;5063737;28;20025;-71
2021/03/14 05:09:58;;;;;;;0.47;0.43;;;3.50;99.90;;;;;;5063942;28;20045;-70
2021/03/14 05:12:24;;;;;;;2.25;0.52;;;3.40;99.90;;;;;;5064104;28;20474;-69
2021/03/14 05:14:50;;;;;;;3.10;0.85;;;3.50;99.90;;;;;;5064291;28;20029;-70
2021/03/14 05:17:17;;;;;;;3.35;0.32;;;3.50;99.90;;;;;;5064206;28;20017;-71
2021/03/14 05:19:45;;;;;;;4.25;0.10;;;3.50;99.90;;;;;;5064425;28;20041;-70
2021/03/14 05:22:11;;;;;;;0.20;0.20;;;3.50;99.90;;;;;;5063708;28;20029;-70
2021/03/14 05:24:38;;;;;;;0.80;0.43;;;3.60;99.90;;;;;;5063634;28;20033;-69
2021/03/14 05:27:07;;;;;;;2.95;0.60;;;3.60;99.90;;;;;;5063651;28;20021;-68
2021/03/14 05:29:33;;;;;;;4.50;0.63;;;3.60;99.90;;;;;;5064183;28;20029;-68
2021/03/14 05:31:59;;;;;;;0.55;0.45;;;3.60;99.90;;;;;;5064043;28;20123;-69
2021/03/14 05:34:25;;;;;;;0.20;0.10;;;3.70;99.90;;;;;;5063914;28;20114;-68
2021/03/14 05:36:51;;;;;;;0.73;0.20;;;3.70;99.90;;;;;;5063933;28;20033;-70
2021/03/14 05:39:17;;;;;;;2.90;0.70;;;3.70;99.90;;;;;;5063952;28;20032;-70
2021/03/14 05:41:44;;;;;;;0.30;0.17;;;3.70;99.90;;;;;;5064503;28;20052;-69
2021/03/14 05:44:10;;;;;;;1.48;0.00;;;3.70;99.90;;;;;;5067910;28;20025;-69
2021/03/14 05:46:36;;;;;;;0.30;0.15;;;3.70;99.90;;;;;;5067543;28;20046;-68
2021/03/14 05:49:03;;;;;;;0.35;0.00;;;3.70;99.90;;;;;;5067336;28;20069;-68
2021/03/14 05:51:35;;;;;;;3.17;0.43;;;3.70;99.90;;;;;;5067522;28;20032;-69
2021/03/14 05:54:01;;;;;;;6.03;0.35;;;3.70;99.90;;;;;;5067314;28;20029;-68
2021/03/14 05:56:28;;;;;;;3.03;0.28;;;3.70;99.90;;;;;;5067459;28;20075;-69
2021/03/14 05:58:55;;;;;;;0.03;0.00;;;3.70;99.90;;;;;;5067454;28;20020;-67
2021/03/14 06:01:28;;;;;;;0.68;0.20;;;3.70;99.90;;;;;;5067218;28;20107;-71
2021/03/14 06:03:55;;;;;;;0.35;0.20;;;3.70;99.90;;;;;;5067615;28;20040;-68
2021/03/14 06:06:21;;;;;;;0.88;0.25;;;3.70;99.90;;;;;;5067195;28;20036;-68
2021/03/14 06:08:47;;;;;;;0.10;0.10;;;3.70;99.90;;;;;;5067148;28;20055;-68
2021/03/14 06:11:13;;;;;;;0.08;0.00;;;3.60;99.90;;;;;;5067020;28;20037;-69
2021/03/14 06:13:40;;;;;;;0.65;0.50;;;3.70;99.90;;;;;;5067323;28;20087;-68
2021/03/14 06:16:06;;;;;;;0.93;0.43;;;3.60;99.90;;;;;;5067148;28;20029;-68
2021/03/14 06:18:34;;;;;;;1.35;0.30;;;3.60;99.90;;;;;;5066842;28;20033;-68
2021/03/14 06:21:02;;;;;;;5.30;0.63;;;3.70;99.90;;;;;;5066984;28;20029;-68
2021/03/14 06:23:27;;;;;;;3.95;0.52;;;3.60;99.90;;;;;;5070075;28;20035;-68
2021/03/14 06:25:55;;;;;;;1.67;0.43;;;3.60;99.90;;;;;;5066944;28;20470;-68
2021/03/14 06:28:35;;;;;;;1.67;0.88;;;3.70;99.90;;;;;;5066972;28;20444;-68
2021/03/14 06:31:17;;;;;;;0.63;0.28;;;3.70;99.90;;;;;;5066720;28;20037;-67
2021/03/14 06:33:45;;;;;;;2.63;0.30;;;3.70;99.90;;;;;;5081152;28;20040;-73
2021/03/14 06:36:16;;;;;;;0.40;0.30;;;3.70;99.90;;;;;;5087139;28;20033;-69
2021/03/14 06:38:43;;;;;;;0.17;0.17;;;3.70;99.90;;;;;;5087025;28;20020;-69
2021/03/14 06:41:20;;;;;;;7.97;0.47;;;3.80;99.90;;;;;;5086691;28;20028;-71
2021/03/14 06:43:55;;;;;;;6.60;0.10;;;3.80;99.90;;;;;;5086655;28;20107;-74
2021/03/14 06:46:29;;;;;;;0.32;0.20;;;3.80;99.90;;;;;;5068122;28;20029;-70
2021/03/14 06:49:06;;;;;;;;;;;3.80;99.90;;;;;;5067431;28;20362;-67
2021/03/14 06:51:38;;;;;;;10.95;0.57;;;3.90;99.90;;;;;;5065865;28;20718;-69
2021/03/14 06:54:37;;;;;;;0.63;0.30;;;3.90;99.90;;;;;;5065675;28;20033;-69
2021/03/14 06:57:06;;;;;;;0.63;0.28;;;3.90;99.90;;;;;;5066578;28;20124;-68
2021/03/14 06:59:49;;;;;;;3.70;0.60;;;3.90;99.90;;;;;;5066599;28;20021;-68
2021/03/14 07:02:21;;;;;;;1.65;0.45;;;3.90;99.90;;;;;;5066817;28;20033;-70
2021/03/14 07:04:54;;;;;;;0.38;0.22;;;3.90;99.90;;;;;;5066075;28;20029;-68
2021/03/14 07:07:25;;;;;;;0.30;0.22;;;3.90;99.90;;;;;;5066026;28;20082;-67
2021/03/14 07:10:07;;;;;;;2.85;0.35;;;3.90;99.90;;;;;;5065372;28;20075;-69
2021/03/14 07:12:38;;;;;;;0.22;0.13;;;4.00;99.90;;;;;;5081407;28;20043;-68
2021/03/14 07:15:11;;;;;;;0.00;0.00;;;4.00;99.90;;;;;;5066224;28;20056;-68
2021/03/14 07:17:37;;;;;;;3.30;0.33;;;4.00;99.90;;;;;;5066101;28;20035;-69
2021/03/14 07:20:11;;;;;;;1.52;0.45;;;4.10;99.90;;;;;;5066065;28;20267;-69
2021/03/14 07:22:37;;;;;;;0.30;0.25;;;4.00;99.90;;;;;;5066225;28;20021;-71
2021/03/14 07:25:20;;;;;;;0.10;0.10;;;4.00;99.90;;;;;;5065481;28;20048;-68
2021/03/14 07:27:48;;;;;;;4.47;0.40;;;4.00;99.90;;;;;;5069004;28;20025;-70
2021/03/14 07:30:15;;;;;;;1.65;0.40;;;4.00;99.90;;;;;;5065310;28;20035;-70
2021/03/14 07:32:41;;;;;;;0.52;0.30;;;4.10;99.90;;;;;;5067461;28;20036;-70
2021/03/14 07:35:10;;;;;;;0.68;0.40;;;4.10;99.90;;;;;;5073173;28;20116;-70
2021/03/14 07:37:41;;;;;;;1.83;0.30;;;4.20;99.90;;;;;;5074016;28;20031;-70
2021/03/14 07:40:11;;;;;;;0.28;0.20;;;4.20;99.90;;;;;;5073936;28;20052;-69
2021/03/14 07:42:38;;;;;;;0.10;0.10;;;4.20;99.90;;;;;;5085743;28;20032;-69
2021/03/14 07:45:06;;;;;;;0.90;0.45;;;4.40;99.90;;;;;;5085608;28;20025;-70
2021/03/14 07:47:36;;;;;;;1.48;0.40;;;4.40;99.90;;;;;;5085387;28;20032;-69
2021/03/14 07:50:04;;;;;;;4.07;0.70;;;4.40;99.90;;;;;;5083839;28;20024;-70
2021/03/14 07:52:31;;;;;;;0.60;0.30;;;4.50;99.90;;;;;;5083414;28;20037;-69
2021/03/14 07:55:08;;;;;;;0.70;0.50;;;4.50;99.90;;;;;;5084446;28;20029;-70
2021/03/14 07:57:33;;;;;;;0.30;0.20;;;4.50;99.90;;;;;;5083536;28;20017;-69
2021/03/14 08:00:32;;;;;;;1.25;0.68;;;4.60;99.90;;;;;;5085095;28;20036;-70
2021/03/14 08:03:01;;;;;;;1.05;0.88;;;4.70;99.90;;;;;;5084659;28;20032;-68
2021/03/14 08:05:39;;;;;;;6.15;1.95;;;5.10;99.90;;;;;;5081973;28;20032;-69
2021/03/14 08:08:26;;;;;;;2.15;1.17;;;5.30;99.90;;;;;;5064678;28;20028;-69
2021/03/14 08:10:53;;;;;;;8.10;1.95;;;5.50;99.90;;;;;;5055848;28;20041;-70
2021/03/14 08:13:30;;;;;;;3.60;1.90;;;5.70;99.90;;;;;;5064558;28;20051;-70
2021/03/14 08:16:02;;;;;;;6.50;1.88;;;5.90;99.90;;;;;;5064610;28;20033;-69
2021/03/14 08:18:39;;;;;;;4.50;1.40;;;6.10;99.90;;;;;;5064306;28;20039;-70
2021/03/14 08:21:06;;;;;;;5.10;1.30;;;6.20;99.90;;;;;;5064849;28;20802;-69
2021/03/14 08:23:43;;;;;;;7.45;2.85;;;6.40;99.90;;;;;;5071897;28;20025;-69
2021/03/14 08:26:35;;;;;;;10.05;2.30;;;6.50;99.90;;;;;;5084699;28;20040;-71
2021/03/14 08:29:03;;;;;;;4.22;2.10;;;6.80;99.90;;;;;;5082866;28;20999;-71
2021/03/14 08:31:44;;;;;;;9.18;2.00;;;7.00;99.90;;;;;;5075227;28;20059;-70
2021/03/14 08:34:30;;;;;;;5.45;2.63;;;7.00;99.90;;;;;;5064581;28;20033;-69
2021/03/14 08:36:57;;;;;;;5.93;2.58;;;6.90;99.90;;;;;;5084105;28;20056;-70
2021/03/14 08:39:27;;;;;;;5.30;1.95;;;6.90;99.90;;;;;;5072391;28;20036;-70
2021/03/14 08:41:56;;;;;;;5.40;2.53;;;6.80;99.90;;;;;;5073175;28;20020;-69
2021/03/14 08:44:46;;;;;;;9.73;2.65;;;6.70;99.90;;;;;;5084531;28;20044;-69
2021/03/14 08:47:14;;;;;;;11.90;1.80;;;6.70;99.90;;;;;;5067213;28;20109;-71
2021/03/14 08:49:42;;;;;;;7.97;3.17;;;6.70;99.90;;;;;;5084696;28;20040;-70
2021/03/14 08:52:09;;;;;;;5.13;2.03;;;6.70;99.90;;;;;;5076301;28;20489;-69
2021/03/14 08:54:40;;;;;;;11.10;2.45;;;6.60;99.90;;;;;;5064122;28;20025;-69
2021/03/14 08:57:09;;;;;;;9.07;2.25;;;6.60;99.90;;;;;;5064009;28;20025;-71
2021/03/14 08:59:36;;;;;;;8.90;2.38;;;6.60;99.90;;;;;;5063667;28;20088;-69
2021/03/14 09:02:03;;;;;;;6.72;1.63;;;6.70;99.90;;;;;;5062756;28;20031;-70
2021/03/14 09:04:35;;;;;;;5.40;2.45;;;6.70;99.90;;;;;;5064228;28;20017;-69
2021/03/14 09:07:11;;;;;;;6.47;2.45;;;6.70;99.90;;;;;;5061995;28;20064;-69
2021/03/14 09:09:38;;;;;;;11.15;2.33;;;6.80;99.90;;;;;;5074464;28;20056;-70
2021/03/14 09:12:07;;;;;;;8.77;2.10;;;6.80;99.90;;;;;;5064964;28;20067;-68
2021/03/14 09:14:48;;;;;;;5.15;2.00;;;6.90;99.90;;;;;;5084897;28;20037;-70
2021/03/14 09:17:20;;;;;;;4.25;1.55;;;7.00;99.90;;;;;;5085452;28;20429;-70
2021/03/14 09:19:52;;;;;;;8.98;2.08;;;7.00;99.90;;;;;;5069752;28;20036;-70
2021/03/14 09:22:23;;;;;;;6.40;2.22;;;7.10;99.90;;;;;;5067916;28;20393;-70
2021/03/14 09:24:56;;;;;;;4.82;1.95;;;7.10;99.90;;;;;;5067946;28;20052;-69
2021/03/14 09:27:29;;;;;;;2.95;1.50;;;7.10;99.90;;;;;;5068095;28;20092;-70
2021/03/14 09:30:24;;;;;;;12.05;2.42;;;7.10;99.90;;;;;;5067932;28;20033;-70
2021/03/14 09:33:00;;;;;;;6.57;2.33;;;7.10;99.90;;;;;;5065535;28;20139;-72
2021/03/14 09:35:27;;;;;;;11.85;2.58;;;7.10;99.90;;;;;;5067955;28;20037;-69
2021/03/14 09:38:14;;;;;;;29.70;2.47;;;7.10;99.90;;;;;;5080510;28;20029;-69
2021/03/14 09:40:45;;;;;;;15.07;2.58;;;7.00;99.90;;;;;;5068523;28;20032;-68
2021/03/14 09:43:18;;;;;;;3.10;1.75;;;7.10;99.90;;;;;;5070996;28;20036;-68
2021/03/14 09:45:55;;;;;;;10.25;1.95;;;7.20;99.90;;;;;;5074050;28;20040;-71
2021/03/14 09:48:22;;;;;;;9.18;2.67;;;7.20;99.90;;;;;;5066917;28;20067;-71
2021/03/14 09:50:54;;;;;;;4.47;2.67;;;7.30;99.90;;;;;;5082451;28;20369;-69
2021/03/14 09:53:22;;;;;;;5.60;2.50;;;7.30;99.90;;;;;;5087269;28;20112;-70
2021/03/14 09:55:51;;;;;;;9.65;2.78;;;7.40;99.90;;;;;;5074405;28;20085;-69
2021/03/14 09:58:25;;;;;;;11.68;2.40;;;7.40;99.90;;;;;;5066722;28;20025;-71
2021/03/14 10:00:53;;;;;;;8.10;3.05;;;7.50;99.90;;;;;;5082559;28;20041;-70
2021/03/14 10:03:33;;;;;;;7.35;2.53;;;7.60;99.90;;;;;;5067190;28;20031;-69
2021/03/14 10:06:00;;;;;;;8.95;1.80;;;7.90;99.90;;;;;;5066767;28;20385;-70
2021/03/14 10:08:47;;;;;;;4.32;2.10;;;8.00;99.90;;;;;;5085147;28;20021;-69
2021/03/14 10:11:15;;;;;;;5.03;2.15;;;8.10;99.90;;;;;;5085903;28;20057;-70
2021/03/14 10:13:47;;;;;;;2.05;1.55;;;8.10;99.90;;;;;;5087219;28;20465;-71
2021/03/14 10:16:16;;;;;;;4.80;1.70;;;8.30;99.90;;;;;;5087416;28;20110;-71
2021/03/14 10:18:43;;;;;;;8.35;2.08;;;8.40;99.90;;;;;;5087056;28;20024;-70
2021/03/14 10:21:25;;;;;;;10.52;2.58;;;8.40;99.90;;;;;;5087067;28;20548;-69
2021/03/14 10:24:11;;;;;;;3.35;1.13;;;8.50;99.90;;;;;;5069668;28;20090;-70
2021/03/14 10:27:09;;;;;;;7.20;1.13;;;8.50;99.90;;;;;;5066808;28;20029;-69
2021/03/14 10:29:40;;;;;;;2.72;1.30;;;8.50;99.90;;;;;;5065285;28;20141;-70
2021/03/14 10:32:30;;;;;;;1.45;1.02;;;8.70;99.90;;;;;;5066874;28;20033;-70
2021/03/14 10:35:01;;;;;;;2.00;1.05;;;9.00;99.90;;;;;;5066307;28;20029;-70
2021/03/14 10:37:35;;;;;;;2.95;1.40;;;9.00;99.90;;;;;;5081762;28;20039;-73
2021/03/14 10:40:07;;;;;;;4.97;1.88;;;9.00;99.90;;;;;;5070333;28;20024;-69
2021/03/14 10:42:44;;;;;;;2.17;1.02;;;9.00;99.90;;;;;;5083959;28;20455;-69
2021/03/14 10:45:16;;;;;;;2.10;1.33;;;9.00;99.90;;;;;;5080419;28;20025;-70
2021/03/14 10:47:46;;;;;;;1.65;1.08;;;8.90;99.90;;;;;;5086410;28;20037;-70
2021/03/14 10:50:20;;;;;;;4.07;1.40;;;9.00;99.90;;;;;;5077780;28;20187;-71
2021/03/14 10:53:06;;;;;;;3.33;1.52;;;8.90;99.90;;;;;;5066593;28;20028;-71
2021/03/14 10:55:32;;;;;;;1.35;1.10;;;8.90;99.90;;;;;;5072345;28;20040;-70
2021/03/14 10:58:13;;;;;;;3.13;1.40;;;8.80;99.90;;;;;;5066133;28;20049;-71
2021/03/14 11:00:43;;;;;;;11.70;1.50;;;8.70;99.90;;;;;;5066272;28;20025;-69
2021/03/14 11:03:36;;;;;;;1.30;0.75;;;8.90;99.90;;;;;;5085183;28;20104;-70
2021/03/14 11:06:16;;;;;;;5.32;1.13;;;9.00;99.90;;;;;;5086079;28;20032;-69
2021/03/14 11:09:05;;;;;;;1.70;0.85;;;9.00;99.90;;;;;;5085955;28;20059;-72
2021/03/14 11:11:47;;;;;;;5.75;1.05;;;8.90;99.90;;;;;;5085507;28;20052;-70
2021/03/14 11:14:35;;;;;;;0.73;0.40;;;8.60;99.90;;;;;;5084925;28;20032;-69
2021/03/14 11:17:10;;;;;;;3.10;1.00;;;8.40;99.90;;;;;;5086117;28;20024;-69
2021/03/14 11:19:38;;;;;;;2.33;0.90;;;8.30;99.90;;;;;;5085347;28;20032;-69
2021/03/14 11:22:04;;;;;;;1.33;0.65;;;8.30;99.90;;;;;;5085383;28;20059;-69
2021/03/14 11:24:30;;;;;;;3.50;1.33;;;8.30;99.90;;;;;;5085250;28;20024;-70
2021/03/14 11:26:55;;;;;;;5.00;1.48;;;8.30;99.90;;;;;;5085385;28;20095;-70
2021/03/14 11:29:22;;;;;;;1.75;1.13;;;8.40;99.90;;;;;;5085951;28;20033;-71
2021/03/14 11:31:48;;;;;;;0.88;0.63;;;8.50;99.90;;;;;;5085732;28;20039;-72
2021/03/14 11:34:16;;;;;;;1.85;1.17;;;8.60;99.90;;;;;;5085576;28;20098;-72
2021/03/14 11:36:41;;;;;;;4.05;1.13;;;8.60;99.90;;;;;;5085446;28;20024;-72
2021/03/14 11:39:07;;;;;;;6.40;1.08;;;8.70;99.90;;;;;;5069779;28;20085;-71
2021/03/14 11:41:33;;;;;;;0.93;0.65;;;8.80;99.90;;;;;;5064334;28;20029;-70
2021/03/14 11:44:00;;;;;;;4.60;1.13;;;9.10;99.90;;;;;;5065404;28;20049;-69
2021/03/14 11:46:26;;;;;;;1.20;0.57;;;9.80;99.90;;;;;;5065537;28;20389;-69
2021/03/14 11:48:52;;;;;;;2.58;1.10;;;10.50;99.90;;;;;;5064628;28;20448;-68
2021/03/14 11:51:18;;;;;;;5.45;0.95;;;10.80;99.90;;;;;;5080491;28;20033;-70
2021/03/14 11:53:44;;;;;;;3.20;0.85;;;10.80;99.90;;;;;;5064459;28;20029;-70
2021/03/14 11:56:10;;;;;;;4.15;0.75;;;10.90;99.90;;;;;;5064959;28;20025;-69
2021/03/14 11:58:35;;;;;;;2.00;0.90;;;10.50;99.90;;;;;;5064791;28;20073;-68
2021/03/14 12:01:02;;;;;;;10.77;1.05;;;10.00;99.90;;;;;;5064733;28;20528;-70
2021/03/14 12:03:28;;;;;;;1.40;1.00;;;9.60;99.90;;;;;;5064944;28;20028;-70
2021/03/14 12:05:54;;;;;;;5.50;1.10;;;9.10;99.90;;;;;;5065008;28;20060;-69
2021/03/14 12:08:19;;;;;;;1.15;0.80;;;8.90;99.90;;;;;;5064603;28;20048;-70
2021/03/14 12:10:46;;;;;;;2.60;1.13;;;8.80;99.90;;;;;;5064605;28;20056;-69
2021/03/14 12:13:11;;;;;;;1.13;0.70;;;8.70;99.90;;;;;;5064992;28;20386;-69
2021/03/14 12:15:37;;;;;;;0.93;0.77;;;8.70;99.90;;;;;;5064797;28;20051;-70
2021/03/14 12:18:03;;;;;;;1.90;0.80;;;8.60;99.90;;;;;;5064788;28;20044;-69
2021/03/14 12:20:28;;;;;;;1.25;0.60;;;8.50;99.90;;;;;;5063244;28;20078;-70
2021/03/14 12:22:54;;;;;;;0.63;0.35;;;8.30;99.90;;;;;;5064790;28;20029;-71
2021/03/14 12:25:20;;;;;;;0.47;0.40;;;7.90;99.90;;;;;;5064482;28;20025;-69
2021/03/14 12:27:46;;;;;;;0.30;0.30;;;7.80;99.90;;;;;;5064711;28;20025;-70
2021/03/14 12:30:13;;;;;;;2.30;0.60;;;7.70;99.90;;;;;;5064759;28;20035;-70
2021/03/14 12:32:39;;;;;;;3.13;0.98;;;7.90;99.90;;;;;;5064353;28;20051;-72
2021/03/14 12:35:05;;;;;;;0.95;0.20;;;8.30;99.90;;;;;;5064707;28;20036;-70
2021/03/14 12:37:31;;;;;;;0.88;0.68;;;8.90;99.90;;;;;;5079739;28;20036;-70
2021/03/14 12:39:56;;;;;;;2.20;0.43;;;9.00;99.90;;;;;;5064421;28;20025;-70
2021/03/14 12:42:22;;;;;;;3.67;0.35;;;9.00;99.90;;;;;;5079950;28;20052;-70
2021/03/14 12:44:48;;;;;;;6.32;0.63;;;8.80;99.90;;;;;;5063302;28;20094;-71
2021/03/14 12:47:14;;;;;;;0.90;0.40;;;8.60;99.90;;;;;;5064800;28;20098;-71
2021/03/14 12:49:40;;;;;;;5.32;0.60;;;8.40;99.90;;;;;;5063067;28;20025;-70
2021/03/14 12:52:06;;;;;;;2.75;0.50;;;8.60;99.90;;;;;;5065104;28;20044;-72
2021/03/14 12:54:31;;;;;;;0.90;0.45;;;9.30;99.90;;;;;;5066919;28;20021;-71
2021/03/14 12:56:57;;;;;;;0.30;0.30;;;10.10;99.90;;;;;;5068507;28;20037;-71
2021/03/14 12:59:22;;;;;;;1.42;0.50;;;10.90;99.90;;;;;;5068449;28;20099;-71
2021/03/14 13:01:48;;;;;;;6.55;0.77;;;11.40;99.90;;;;;;5068719;28;20025;-71
2021/03/14 13:04:15;;;;;;;0.70;0.43;;;11.80;99.90;;;;;;5068344;28;20044;-72
2021/03/14 13:06:40;;;;;;;1.85;0.52;;;12.20;99.90;;;;;;5068502;28;20576;-73
2021/03/14 13:09:06;;;;;;;0.65;0.60;;;12.50;99.90;;;;;;5083341;28;20037;-72